Terminal Aerodrome Forecast
Issued by NWS

Home | Current Version | Previous Version | Text Only | Print | Product List | Glossary On
Versions: 1 2 3 4 5 6 7 8 9 10 11 12 13
000
FTUS41 KPHI 291133
TAFMIV
TAF
KMIV 291133Z 2912/3012 20007KT P6SM FEW200
     FM291600 20010G19KT P6SM FEW035
     FM292300 19007KT P6SM FEW250
     FM300900 20003KT P6SM SCT080=

USA.gov is the U.S. government's official web portal to all federal, state and local government web resources and services.